Time;durP1;ratioP1;P1;durP2;ratioP2;P2;SDS_P1;SDS_P2;PMS_P1;PMS_P2;Temp;Humidity;BMP_temperature;BMP_pressure;BME280_temperature;BME280_humidity;BME280_pressure;Samples;Min_cycle;Max_cycle;Signal;HPM_P1;HPM_P2
2022/04/13 00:02:21;;;;;;;;;;;16.30;99.90;;;;;;5038894;28;19928;-85
2022/04/13 00:04:46;;;;;;;;;;;16.30;99.90;;;;;;5058124;28;19926;-84
2022/04/13 00:07:12;;;;;;;;;;;16.20;99.90;;;;;;5055277;28;19913;-85
2022/04/13 00:09:37;;;;;;;;;;;16.20;99.90;;;;;;5044255;28;20343;-85
2022/04/13 00:12:04;;;;;;;;;;;16.20;99.90;;;;;;5055762;28;19917;-84
2022/04/13 00:14:30;;;;;;;;;;;16.10;99.90;;;;;;5052223;28;19913;-85
2022/04/13 00:16:55;;;;;;;;;;;16.10;99.90;;;;;;5056246;28;19963;-85
2022/04/13 00:19:21;;;;;;;;;;;16.10;99.90;;;;;;5055617;28;19921;-85
2022/04/13 00:21:47;;;;;;;;;;;16.10;99.90;;;;;;5058531;28;19913;-85
2022/04/13 00:24:13;;;;;;;;;;;16.10;99.90;;;;;;5053414;28;19919;-84
2022/04/13 00:26:38;;;;;;;;;;;16.10;99.90;;;;;;5055339;28;19924;-84
2022/04/13 00:29:04;;;;;;;;;;;16.10;99.90;;;;;;5057104;28;20043;-85
2022/04/13 00:31:29;;;;;;;;;;;16.00;99.90;;;;;;5061597;28;19912;-85
2022/04/13 00:33:55;;;;;;;;;;;16.00;99.90;;;;;;5041904;28;20394;-85
2022/04/13 00:36:23;;;;;;;;;;;16.00;99.90;;;;;;5053652;28;19921;-85
2022/04/13 00:38:48;;;;;;;;;;;16.00;99.90;;;;;;5052596;28;19959;-86
2022/04/13 00:41:13;;;;;;;;;;;16.00;99.90;;;;;;5057323;28;19941;-84
2022/04/13 00:43:39;;;;;;;;;;;16.00;99.90;;;;;;5054265;28;19917;-85
2022/04/13 00:46:05;;;;;;;;;;;15.90;99.90;;;;;;5054155;28;19963;-84
2022/04/13 00:48:30;;;;;;;;;;;15.90;99.90;;;;;;5056068;28;19912;-84
2022/04/13 00:50:56;;;;;;;;;;;15.90;99.90;;;;;;5056385;28;19960;-84
2022/04/13 00:53:22;;;;;;;;;;;15.90;99.90;;;;;;5055437;28;19920;-84
2022/04/13 00:55:48;;;;;;;;;;;15.90;99.90;;;;;;5044528;28;20010;-84
2022/04/13 00:58:14;;;;;;;;;;;15.90;99.90;;;;;;5054987;28;20459;-85
2022/04/13 01:00:48;;;;;;;;;;;15.90;99.90;;;;;;5039034;28;19919;-85
2022/04/13 01:03:20;;;;;;;;;;;15.90;99.90;;;;;;5054374;28;19919;-84
2022/04/13 01:05:47;;;;;;;;;;;15.90;99.90;;;;;;5055408;28;19913;-85
2022/04/13 01:08:13;;;;;;;;;;;15.80;99.90;;;;;;5055642;28;19920;-85
2022/04/13 01:10:42;;;;;;;;;;;15.80;99.90;;;;;;5042771;28;19986;-85
2022/04/13 01:13:08;;;;;;;;;;;15.80;99.90;;;;;;5053732;28;20008;-85
2022/04/13 01:15:34;;;;;;;;;;;15.80;99.90;;;;;;5055538;28;20352;-85
2022/04/13 01:17:59;;;;;;;;;;;15.80;99.90;;;;;;5055249;28;19948;-85
2022/04/13 01:20:25;;;;;;;;;;;15.80;99.90;;;;;;5055236;28;19920;-84
2022/04/13 01:22:51;;;;;;;;;;;15.70;99.90;;;;;;5055175;28;19920;-85
2022/04/13 01:25:16;;;;;;;;;;;15.70;99.90;;;;;;5056186;28;19999;-84
2022/04/13 01:27:42;;;;;;;;;;;15.70;99.90;;;;;;5056842;28;20373;-85
2022/04/13 01:30:08;;;;;;;;;;;15.70;99.90;;;;;;5055032;28;19917;-84
2022/04/13 01:32:33;;;;;;;;;;;15.60;99.90;;;;;;5053766;28;19917;-84
2022/04/13 01:34:59;;;;;;;;;;;15.60;99.90;;;;;;5037508;28;19955;-84
2022/04/13 01:37:24;;;;;;;;;;;15.60;99.90;;;;;;5054676;28;20406;-84
2022/04/13 01:39:50;;;;;;;;;;;15.50;99.90;;;;;;5053427;28;20046;-84
2022/04/13 01:42:16;;;;;;;;;;;15.50;99.90;;;;;;5054353;28;19913;-84
2022/04/13 01:44:41;;;;;;;;;;;15.50;99.90;;;;;;5055630;28;20077;-84
2022/04/13 01:47:07;;;;;;;;;;;15.50;99.90;;;;;;5037267;28;19963;-84
2022/04/13 01:49:32;;;;;;;;;;;15.40;99.90;;;;;;5053751;28;20014;-85
2022/04/13 01:51:58;;;;;;;;;;;15.40;99.90;;;;;;5054907;28;19913;-84
2022/04/13 01:54:23;;;;;;;;;;;15.40;99.90;;;;;;5056331;28;19913;-84
2022/04/13 01:56:49;;;;;;;;;;;15.40;99.90;;;;;;5054011;28;19954;-85
2022/04/13 01:59:14;;;;;;;;;;;15.40;99.90;;;;;;5055791;28;19955;-85
2022/04/13 02:01:43;;;;;;;;;;;15.40;99.90;;;;;;5055609;28;19921;-85
2022/04/13 02:04:22;;;;;;;;;;;15.30;99.90;;;;;;5034721;28;20009;-84
2022/04/13 02:06:48;;;;;;;;;;;15.30;99.90;;;;;;5057606;28;19969;-85
2022/04/13 02:09:17;;;;;;;;;;;15.30;99.90;;;;;;5056264;28;19920;-85
2022/04/13 02:11:43;;;;;;;;;;;15.30;99.90;;;;;;5056347;28;19913;-85
2022/04/13 02:14:08;;;;;;;;;;;15.20;99.90;;;;;;5054459;28;19913;-84
2022/04/13 02:16:34;;;;;;;;;;;15.20;99.90;;;;;;5054426;28;20280;-84
2022/04/13 02:19:00;;;;;;;;;;;15.20;99.90;;;;;;5055800;28;19912;-85
2022/04/13 02:21:25;;;;;;;;;;;15.20;99.90;;;;;;5037427;28;19936;-85
2022/04/13 02:23:51;;;;;;;;;;;15.20;99.90;;;;;;5053649;28;20397;-85
2022/04/13 02:26:17;;;;;;;;;;;15.20;99.90;;;;;;5053070;28;19913;-85
2022/04/13 02:28:43;;;;;;;;;;;15.10;99.90;;;;;;5054526;28;19921;-85
2022/04/13 02:31:08;;;;;;;;;;;15.10;99.90;;;;;;5054351;28;19917;-84
2022/04/13 02:33:34;;;;;;;;;;;15.10;99.90;;;;;;5053652;28;19935;-84
2022/04/13 02:36:02;;;;;;;;;;;15.10;99.90;;;;;;5056120;28;19920;-85
2022/04/13 02:38:27;;;;;;;;;;;15.10;99.90;;;;;;5051839;28;19920;-84
2022/04/13 02:40:52;;;;;;;;;;;15.10;99.90;;;;;;5055447;28;20300;-84
2022/04/13 02:43:18;;;;;;;;;;;15.10;99.90;;;;;;5049577;28;19919;-85
2022/04/13 02:45:43;;;;;;;;;;;15.10;99.90;;;;;;5056881;28;19920;-84
2022/04/13 02:48:09;;;;;;;;;;;15.10;99.90;;;;;;5055858;28;19912;-85
2022/04/13 02:50:34;;;;;;;;;;;15.10;99.90;;;;;;5054449;28;19925;-84
2022/04/13 02:53:00;;;;;;;;;;;15.10;99.90;;;;;;5055232;28;19912;-84
2022/04/13 02:55:25;;;;;;;;;;;15.00;99.90;;;;;;5052218;28;19913;-85
2022/04/13 02:57:51;;;;;;;;;;;15.00;99.90;;;;;;5037631;28;19920;-84
2022/04/13 03:00:17;;;;;;;;;;;15.00;99.90;;;;;;5054154;28;19976;-85
2022/04/13 03:02:44;;;;;;;;;;;15.00;99.90;;;;;;5055563;28;19959;-85
2022/04/13 03:05:10;;;;;;;;;;;15.00;99.90;;;;;;5037347;28;19979;-85
2022/04/13 03:07:36;;;;;;;;;;;15.00;99.90;;;;;;5058951;28;19978;-84
2022/04/13 03:10:02;;;;;;;;;;;15.00;99.90;;;;;;5059389;28;19980;-85
2022/04/13 03:12:28;;;;;;;;;;;15.00;99.90;;;;;;5041282;28;19917;-84
2022/04/13 03:14:53;;;;;;;;;;;15.00;99.90;;;;;;5043124;28;19947;-84
2022/04/13 03:17:19;;;;;;;;;;;15.00;99.90;;;;;;5060688;28;19936;-84
2022/04/13 03:19:44;;;;;;;;;;;15.00;99.90;;;;;;5060098;28;19917;-85
2022/04/13 03:22:09;;;;;;;;;;;15.00;99.90;;;;;;5058069;28;19916;-84
2022/04/13 03:24:35;;;;;;;;;;;15.00;99.90;;;;;;5057155;28;19920;-85
2022/04/13 03:27:03;;;;;;;;;;;15.00;99.90;;;;;;5041506;28;20603;-84
2022/04/13 03:29:28;;;;;;;;;;;15.00;99.90;;;;;;5057921;28;19917;-84
2022/04/13 03:31:54;;;;;;;;;;;15.00;99.90;;;;;;5059480;28;19948;-84
2022/04/13 03:34:22;;;;;;;;;;;15.00;99.90;;;;;;5056608;28;20297;-84
2022/04/13 03:36:48;;;;;;;;;;;14.90;99.90;;;;;;5061853;28;20351;-85
2022/04/13 03:39:14;;;;;;;;;;;14.90;99.90;;;;;;5057761;28;19940;-84
2022/04/13 03:41:39;;;;;;;;;;;14.90;99.90;;;;;;5042913;28;20346;-85
2022/04/13 03:44:05;;;;;;;;;;;14.90;99.90;;;;;;5058785;28;20291;-84
2022/04/13 03:46:31;;;;;;;;;;;14.90;99.90;;;;;;5058066;28;20008;-84
2022/04/13 03:48:57;;;;;;;;;;;14.90;99.90;;;;;;5059192;28;19913;-85
2022/04/13 03:51:23;;;;;;;;;;;14.90;99.90;;;;;;5052707;28;20299;-85
2022/04/13 03:53:48;;;;;;;;;;;14.90;99.90;;;;;;5041938;28;19917;-83
2022/04/13 03:56:13;;;;;;;;;;;14.80;99.90;;;;;;5060501;28;19924;-85
2022/04/13 03:58:42;;;;;;;;;;;14.80;99.90;;;;;;5058010;28;19944;-85
2022/04/13 04:01:10;;;;;;;;;;;14.80;99.90;;;;;;5058365;28;19912;-85
2022/04/13 04:03:37;;;;;;;;;;;14.70;99.90;;;;;;5052127;28;20359;-85
2022/04/13 04:06:03;;;;;;;;;;;14.70;99.90;;;;;;5058984;28;19931;-84
2022/04/13 04:08:29;;;;;;;;;;;14.70;99.90;;;;;;5039999;28;19913;-85
2022/04/13 04:10:54;;;;;;;;;;;14.70;99.90;;;;;;5043944;28;20003;-84
2022/04/13 04:13:20;;;;;;;;;;;14.70;99.90;;;;;;5055080;28;19920;-86
2022/04/13 04:15:46;;;;;;;;;;;14.60;99.90;;;;;;5062032;28;20116;-84
2022/04/13 04:18:11;;;;;;;;;;;14.60;99.90;;;;;;5059213;28;19912;-85
2022/04/13 04:20:37;;;;;;;;;;;14.60;99.90;;;;;;5053979;28;20425;-85
2022/04/13 04:23:02;;;;;;;;;;;14.60;99.90;;;;;;5041558;28;20357;-85
2022/04/13 04:25:28;;;;;;;;;;;14.50;99.90;;;;;;5056395;28;19916;-84
2022/04/13 04:27:53;;;;;;;;;;;14.50;99.90;;;;;;5059713;28;20339;-84
2022/04/13 04:30:18;;;;;;;;;;;14.50;99.90;;;;;;5054705;28;19939;-85
2022/04/13 04:32:44;;;;;;;;;;;14.60;99.90;;;;;;5052750;28;19917;-84
2022/04/13 04:35:10;;;;;;;;;;;14.60;99.90;;;;;;5055369;28;19920;-84
2022/04/13 04:37:35;;;;;;;;;;;14.60;99.90;;;;;;5056162;28;19924;-84
2022/04/13 04:40:01;;;;;;;;;;;14.60;99.90;;;;;;5052742;28;19913;-86
2022/04/13 04:42:27;;;;;;;;;;;14.60;99.90;;;;;;5054311;28;19920;-85
2022/04/13 04:44:57;;;;;;;;;;;14.60;99.90;;;;;;5051774;28;19913;-84
2022/04/13 04:47:22;;;;;;;;;;;14.50;99.90;;;;;;5051623;28;20387;-84
2022/04/13 04:49:47;;;;;;;;;;;14.50;99.90;;;;;;5054075;28;19964;-84
2022/04/13 04:52:13;;;;;;;;;;;14.40;99.90;;;;;;5062061;28;19956;-82
2022/04/13 04:54:38;;;;;;;;;;;14.40;99.90;;;;;;5054752;28;19917;-85
2022/04/13 04:57:04;;;;;;;;;;;14.40;99.90;;;;;;5058218;28;19923;-84
2022/04/13 04:59:29;;;;;;;;;;;14.40;99.90;;;;;;5056136;28;19913;-84
2022/04/13 05:01:55;;;;;;;;;;;14.40;99.90;;;;;;5038528;28;20062;-83
2022/04/13 05:04:20;;;;;;;;;;;14.30;99.90;;;;;;5058859;28;19952;-84
2022/04/13 05:06:46;;;;;;;;;;;14.30;99.90;;;;;;5056177;28;19920;-84
2022/04/13 05:09:11;;;;;;;;;;;14.30;99.90;;;;;;5059175;28;19912;-84
2022/04/13 05:11:37;;;;;;;;;;;14.30;99.90;;;;;;5056903;28;19913;-83
2022/04/13 05:14:02;;;;;;;;;;;14.20;99.90;;;;;;5058858;28;20292;-84
2022/04/13 05:16:27;;;;;;;;;;;14.20;99.90;;;;;;5057480;28;19917;-84
2022/04/13 05:18:53;;;;;;;;;;;14.20;99.90;;;;;;5053989;28;19921;-84
2022/04/13 05:21:18;;;;;;;;;;;14.20;99.90;;;;;;5055081;28;19920;-85
2022/04/13 05:23:44;;;;;;;;;;;14.20;99.90;;;;;;5035443;28;19924;-84
2022/04/13 05:26:10;;;;;;;;;;;14.30;99.90;;;;;;5057709;28;19913;-84
2022/04/13 05:28:36;;;;;;;;;;;14.30;99.90;;;;;;5052495;28;19913;-85
2022/04/13 05:31:01;;;;;;;;;;;14.30;99.90;;;;;;5055502;28;19917;-84
2022/04/13 05:33:26;;;;;;;;;;;14.40;99.90;;;;;;5054259;28;19924;-85
2022/04/13 05:35:52;;;;;;;;;;;14.50;99.90;;;;;;5055526;28;19913;-86
2022/04/13 05:38:18;;;;;;;;;;;14.60;99.90;;;;;;5055775;28;20012;-85
2022/04/13 05:40:44;;;;;;;;;;;14.80;99.90;;;;;;5057432;28;19961;-84
2022/04/13 05:43:09;;;;;;;;;;;15.10;99.90;;;;;;5056148;28;19919;-85
2022/04/13 05:45:37;;;;;;;;;;;15.50;99.90;;;;;;5059544;28;19960;-84
2022/04/13 05:48:03;;;;;;;;;;;16.00;99.90;;;;;;5061195;28;19966;-84
2022/04/13 05:50:29;;;;;;;;;;;16.30;99.90;;;;;;5038822;28;19923;-85
2022/04/13 05:52:54;;;;;;;;;;;16.40;99.90;;;;;;5058059;28;20387;-84
2022/04/13 05:55:20;;;;;;;;;;;16.50;99.90;;;;;;5038930;28;19919;-83
2022/04/13 05:57:45;;;;;;;;;;;16.60;99.90;;;;;;5055828;28;19913;-84
2022/04/13 06:00:12;;;;;;;;;;;16.80;99.90;;;;;;5058305;28;19920;-84
2022/04/13 06:02:38;;;;;;;;;;;17.00;99.90;;;;;;5057080;28;19924;-84
2022/04/13 06:05:04;;;;;;;;;;;17.50;99.90;;;;;;5057342;28;19913;-85
2022/04/13 06:07:29;;;;;;;;;;;17.80;99.90;;;;;;5040694;28;19917;-84
2022/04/13 06:09:55;;;;;;;;;;;18.70;99.90;;;;;;5042023;28;20011;-84
2022/04/13 06:12:26;;;;;;;;;;;19.50;99.90;;;;;;5056649;28;19912;-84
2022/04/13 06:14:51;;;;;;;;;;;20.60;99.90;;;;;;5053214;28;19913;-82
2022/04/13 06:17:17;;;;;;;;;;;21.30;99.90;;;;;;5058862;28;19913;-86
2022/04/13 06:19:42;;;;;;;;;;;21.50;99.90;;;;;;5050271;28;19956;-82
2022/04/13 06:22:08;;;;;;;;;;;21.60;99.90;;;;;;5057227;28;20376;-84
2022/04/13 06:24:33;;;;;;;;;;;21.90;99.90;;;;;;5043023;28;20265;-84
2022/04/13 06:26:59;;;;;;;;;;;22.40;99.90;;;;;;5054216;28;19913;-84
2022/04/13 06:29:24;;;;;;;;;;;22.80;99.90;;;;;;5060474;28;19936;-85
2022/04/13 06:31:50;;;;;;;;;;;23.10;99.90;;;;;;5055369;28;19919;-84
2022/04/13 06:34:16;;;;;;;;;;;23.60;99.90;;;;;;5059091;28;19912;-84
2022/04/13 06:36:42;;;;;;;;;;;23.60;99.90;;;;;;5056109;28;19913;-84
2022/04/13 06:39:07;;;;;;;;;;;23.60;99.90;;;;;;5051908;28;19913;-85
2022/04/13 06:41:33;;;;;;;;;;;23.40;99.90;;;;;;5053379;28;19921;-85
2022/04/13 06:43:59;;;;;;;;;;;23.10;99.90;;;;;;5058939;28;19979;-85
2022/04/13 06:46:24;;;;;;;;;;;23.30;99.90;;;;;;5062050;28;19916;-85
2022/04/13 06:48:50;;;;;;;;;;;24.00;99.90;;;;;;5058830;28;19970;-86
2022/04/13 06:51:17;;;;;;;;;;;24.70;99.90;;;;;;5061004;28;20140;-86
2022/04/13 06:53:43;;;;;;;;;;;25.60;99.90;;;;;;5057947;28;19913;-87
2022/04/13 06:56:08;;;;;;;;;;;26.50;99.90;;;;;;5059508;28;20593;-88
2022/04/13 06:58:34;;;;;;;;;;;26.70;99.90;;;;;;5057643;28;19938;-87
2022/04/13 07:00:59;;;;;;;;;;;26.70;99.90;;;;;;5044399;28;19917;-86
2022/04/13 07:03:25;;;;;;;;;;;26.80;99.90;;;;;;5050682;28;19948;-87
2022/04/13 07:05:50;;;;;;;;;;;26.50;99.90;;;;;;5051996;28;19913;-85
2022/04/13 07:08:23;;;;;;;;;;;26.40;99.90;;;;;;5055120;28;20361;-86
2022/04/13 07:10:49;;;;;;;;;;;26.90;99.90;;;;;;5065343;28;19917;-87
2022/04/13 07:13:16;;;;;;;;;;;27.80;99.90;;;;;;5058277;28;19989;-86
2022/04/13 07:15:42;;;;;;;;;;;28.50;99.90;;;;;;5056466;28;19921;-86
2022/04/13 07:18:09;;;;;;;;;;;29.00;99.90;;;;;;5046624;28;19912;-86
2022/04/13 07:20:34;;;;;;;;;;;30.00;99.90;;;;;;5062969;28;19944;-86
2022/04/13 07:23:00;;;;;;;;;;;31.20;99.90;;;;;;5058334;28;19939;-85
2022/04/13 07:25:25;;;;;;;;;;;32.30;99.90;;;;;;5054693;28;19920;-85
2022/04/13 07:27:51;;;;;;;;;;;33.30;99.90;;;;;;5053958;28;19913;-84
2022/04/13 07:30:16;;;;;;;;;;;34.50;99.90;;;;;;5050184;28;19916;-83
2022/04/13 07:32:42;;;;;;;;;;;35.40;99.90;;;;;;5054574;28;19947;-83
2022/04/13 07:35:08;;;;;;;;;;;35.90;99.90;;;;;;5063111;28;19948;-84
2022/04/13 07:37:34;;;;;;;;;;;36.50;99.90;;;;;;5064544;28;19913;-84
2022/04/13 07:39:59;;;;;;;;;;;37.40;99.90;;;;;;5054893;28;19921;-84
2022/04/13 07:42:26;;;;;;;;;;;38.00;99.90;;;;;;5060102;28;20352;-84
2022/04/13 07:44:53;;;;;;;;;;;38.60;99.90;;;;;;5055741;28;19913;-84
2022/04/13 07:47:20;;;;;;;;;;;39.10;99.90;;;;;;5034585;28;19999;-85
2022/04/13 07:49:46;;;;;;;;;;;39.50;99.90;;;;;;5063930;28;20406;-84
2022/04/13 07:52:12;;;;;;;;;;;40.10;99.90;;;;;;5051545;28;19912;-84
2022/04/13 07:54:38;;;;;;;;;;;40.80;99.90;;;;;;5059063;28;19944;-85
2022/04/13 07:57:03;;;;;;;;;;;41.30;99.90;;;;;;5043639;28;20398;-85
2022/04/13 07:59:29;;;;;;;;;;;41.80;99.90;;;;;;5051070;28;20007;-84
2022/04/13 08:01:54;;;;;;;;;;;41.90;99.90;;;;;;5058641;28;19917;-84
2022/04/13 08:04:20;;;;;;;;;;;41.50;99.90;;;;;;5054178;28;19939;-84
2022/04/13 08:06:45;;;;;;;;;;;42.00;99.90;;;;;;5041716;28;19912;-84
2022/04/13 08:09:11;;;;;;;;;;;42.30;99.90;;;;;;5060880;28;19913;-84
2022/04/13 08:11:36;;;;;;;;;;;42.70;99.90;;;;;;5061455;28;20000;-83
2022/04/13 08:14:02;;;;;;;;;;;43.80;99.90;;;;;;5059708;28;19925;-84
2022/04/13 08:16:27;;;;;;;;;;;44.60;99.90;;;;;;5047361;28;19919;-84
2022/04/13 08:18:53;;;;;;;;;;;45.30;99.90;;;;;;5059743;28;20280;-86
2022/04/13 08:21:18;;;;;;;;;;;45.80;99.90;;;;;;5039359;28;19917;-85
2022/04/13 08:23:43;;;;;;;;;;;46.10;99.90;;;;;;5052957;28;19939;-85
2022/04/13 08:26:09;;;;;;;;;;;46.40;99.90;;;;;;5055327;28;19913;-85
2022/04/13 08:28:34;;;;;;;;;;;46.50;99.90;;;;;;5026909;28;19951;-86
2022/04/13 08:31:02;;;;;;;;;;;46.50;99.90;;;;;;5054088;28;20003;-84
2022/04/13 08:33:27;;;;;;;;;;;45.30;99.90;;;;;;5052557;28;20010;-84
2022/04/13 08:35:53;;;;;;;;;;;43.70;99.90;;;;;;5055009;28;19913;-84
2022/04/13 08:38:18;;;;;;;;;;;43.90;99.90;;;;;;5057045;28;20010;-85
2022/04/13 08:40:55;;;;;;;;;;;43.90;99.90;;;;;;5055262;28;19917;-84
2022/04/13 08:43:25;;;;;;;;;;;43.10;99.90;;;;;;5054970;28;19917;-84
2022/04/13 08:45:55;;;;;;;;;;;39.70;99.90;;;;;;5055888;28;19948;-84
2022/04/13 08:48:24;;;;;;;;;;;37.90;99.90;;;;;;5053229;28;19920;-84
2022/04/13 08:50:59;;;;;;;;;;;37.50;99.90;;;;;;5040324;28;19917;-85
2022/04/13 08:53:29;;;;;;;;;;;37.50;99.90;;;;;;5045260;28;19916;-84
2022/04/13 08:55:56;;;;;;;;;;;36.10;99.90;;;;;;5059025;28;19913;-84
2022/04/13 08:58:29;;;;;;;;;;;34.30;99.90;;;;;;5057974;28;20295;-84
2022/04/13 09:00:57;;;;;;;;;;;33.60;99.90;;;;;;5070665;28;19913;-84
2022/04/13 09:03:25;;;;;;;;;;;33.20;99.90;;;;;;5063675;28;19963;-84
2022/04/13 09:05:52;;;;;;;;;;;32.70;99.90;;;;;;5066832;28;19913;-83
2022/04/13 09:08:19;;;;;;;;;;;32.30;99.90;;;;;;5063946;28;19959;-83
2022/04/13 09:10:46;;;;;;;;;;;33.20;99.90;;;;;;5064994;28;19925;-84
2022/04/13 09:13:12;;;;;;;;;;;34.50;99.90;;;;;;5043572;28;19913;-84
2022/04/13 09:15:39;;;;;;;;;;;34.80;99.90;;;;;;5046967;28;19998;-84
2022/04/13 09:18:06;;;;;;;;;;;35.70;99.90;;;;;;5040413;28;20403;-84
2022/04/13 09:20:31;;;;;;;;;;;34.90;99.90;;;;;;5054806;28;19912;-83
2022/04/13 09:22:59;;;;;;;;;;;34.70;99.90;;;;;;5058696;28;19992;-84
2022/04/13 09:25:26;;;;;;;;;;;36.30;99.90;;;;;;5058475;28;19917;-84
2022/04/13 09:27:52;;;;;;;;;;;37.20;99.90;;;;;;5050391;28;20351;-84
2022/04/13 09:30:17;;;;;;;;;;;38.30;99.90;;;;;;5054931;28;19920;-84
2022/04/13 09:32:44;;;;;;;;;;;38.70;99.90;;;;;;5038235;28;19920;-84
2022/04/13 09:35:10;;;;;;;;;;;39.50;99.90;;;;;;5062262;28;19913;-85
2022/04/13 09:37:36;;;;;;;;;;;40.00;99.90;;;;;;5053760;28;19913;-85
2022/04/13 09:40:02;;;;;;;;;;;41.20;99.90;;;;;;5053209;28;20266;-85
2022/04/13 09:42:27;;;;;;;;;;;42.30;99.90;;;;;;5056358;28;19919;-85
2022/04/13 09:44:56;;;;;;;;;;;42.80;99.90;;;;;;5059119;28;19920;-85
2022/04/13 09:47:23;;;;;;;;;;;43.00;99.90;;;;;;5052024;28;20332;-85
2022/04/13 09:49:53;;;;;;;;;;;43.20;99.90;;;;;;5037207;28;19927;-84
2022/04/13 09:52:37;;;;;;;;;;;42.90;99.90;;;;;;5040043;28;19920;-84
2022/04/13 09:55:06;;;;;;;;;;;42.50;99.90;;;;;;5059992;28;20419;-85
2022/04/13 09:57:32;;;;;;;;;;;41.60;99.90;;;;;;5053174;28;19995;-85
2022/04/13 10:00:03;;;;;;;;;;;42.00;99.90;;;;;;5057038;28;19971;-86
2022/04/13 10:02:39;;;;;;;;;;;42.60;99.90;;;;;;5057144;28;20396;-85
2022/04/13 10:05:05;;;;;;;;;;;43.10;99.90;;;;;;5055031;28;19920;-85
2022/04/13 10:07:34;;;;;;;;;;;42.50;99.90;;;;;;5051997;28;19913;-85
2022/04/13 10:10:00;;;;;;;;;;;40.80;99.90;;;;;;5058869;28;19917;-84
2022/04/13 10:12:25;;;;;;;;;;;39.20;99.90;;;;;;5062037;28;20391;-84
2022/04/13 10:14:51;;;;;;;;;;;38.00;99.90;;;;;;5061624;28;19923;-85
2022/04/13 10:17:17;;;;;;;;;;;37.50;99.90;;;;;;5057801;28;19967;-85
2022/04/13 10:19:51;;;;;;;;;;;38.00;99.90;;;;;;5048488;28;19917;-85
2022/04/13 10:22:16;;;;;;;;;;;38.90;99.90;;;;;;5048336;28;20320;-85
2022/04/13 10:24:43;;;;;;;;;;;39.90;99.90;;;;;;5060849;28;19916;-85
2022/04/13 10:27:20;;;;;;;;;;;39.90;99.90;;;;;;5054601;28;19912;-85
2022/04/13 10:29:49;;;;;;;;;;;38.40;99.90;;;;;;5041182;28;20376;-85
2022/04/13 10:32:15;;;;;;;;;;;36.70;99.90;;;;;;5037214;28;19927;-84
2022/04/13 10:34:42;;;;;;;;;;;35.60;99.90;;;;;;5057174;28;19912;-84
2022/04/13 10:37:08;;;;;;;;;;;34.60;99.90;;;;;;5058502;28;19913;-84
2022/04/13 10:39:34;;;;;;;;;;;34.40;99.90;;;;;;5056536;28;19913;-85
2022/04/13 10:42:02;;;;;;;;;;;34.30;99.90;;;;;;5053621;28;19913;-84
2022/04/13 10:44:36;;;;;;;;;;;34.90;99.90;;;;;;5054290;28;20270;-84
2022/04/13 10:47:09;;;;;;;;;;;35.50;99.90;;;;;;5034919;28;19920;-85
2022/04/13 10:49:55;;;;;;;;;;;36.20;99.90;;;;;;5054406;28;19924;-85
2022/04/13 10:52:41;;;;;;;;;;;36.80;99.90;;;;;;5036168;28;20049;-84
2022/04/13 10:55:09;;;;;;;;;;;36.90;99.90;;;;;;5003924;28;19948;-85
2022/04/13 10:57:36;;;;;;;;;;;36.80;99.90;;;;;;5052589;28;19964;-84
2022/04/13 11:00:03;;;;;;;;;;;37.00;99.90;;;;;;5054719;28;19921;-84
2022/04/13 11:02:32;;;;;;;;;;;36.90;99.90;;;;;;5055614;28;19923;-84
2022/04/13 11:04:58;;;;;;;;;;;35.70;99.90;;;;;;5061502;28;19920;-85
2022/04/13 11:07:24;;;;;;;;;;;35.50;99.90;;;;;;5050020;28;19917;-84
2022/04/13 11:09:53;;;;;;;;;;;35.40;99.90;;;;;;5040818;28;19917;-84
2022/04/13 11:12:18;;;;;;;;;;;34.60;99.90;;;;;;5049496;28;19924;-84
2022/04/13 11:14:52;;;;;;;;;;;34.00;99.90;;;;;;5061751;28;19916;-84
2022/04/13 11:17:17;;;;;;;;;;;33.60;99.90;;;;;;5054102;28;19913;-84
2022/04/13 11:19:43;;;;;;;;;;;33.80;99.90;;;;;;5067119;28;19935;-84
2022/04/13 11:22:13;;;;;;;;;;;34.10;99.90;;;;;;5042375;28;19958;-84
2022/04/13 11:24:40;;;;;;;;;;;34.10;99.90;;;;;;5042029;28;19913;-83
2022/04/13 11:27:07;;;;;;;;;;;34.30;99.90;;;;;;5061990;28;19917;-84
2022/04/13 11:29:33;;;;;;;;;;;35.30;99.90;;;;;;5061347;28;19954;-84
2022/04/13 11:32:01;;;;;;;;;;;36.00;99.90;;;;;;5068064;28;19924;-84
2022/04/13 11:34:31;;;;;;;;;;;36.60;99.90;;;;;;5052166;28;19916;-84
2022/04/13 11:37:00;;;;;;;;;;;36.50;99.90;;;;;;5065625;28;19920;-85
2022/04/13 11:40:06;;;;;;;;;;;36.00;99.90;;;;;;5059102;28;19955;-84
2022/04/13 11:42:38;;;;;;;;;;;34.40;99.90;;;;;;5032394;28;19913;-83
2022/04/13 11:45:05;;;;;;;;;;;32.90;99.90;;;;;;5063680;28;20333;-84
2022/04/13 11:47:39;;;;;;;;;;;32.20;99.90;;;;;;5049097;28;20003;-84
2022/04/13 11:50:14;;;;;;;;;;;32.10;99.90;;;;;;5063184;28;19920;-84
2022/04/13 11:52:58;;;;;;;;;;;31.50;99.90;;;;;;5066700;28;19913;-85
2022/04/13 11:55:23;;;;;;;;;;;30.50;99.90;;;;;;5061660;28;20014;-83
2022/04/13 11:57:57;;;;;;;;;;;30.30;99.90;;;;;;5064540;28;19960;-84
2022/04/13 12:00:35;;;;;;;;;;;30.10;99.90;;;;;;5061011;28;19913;-83
2022/04/13 12:03:01;;;;;;;;;;;30.90;99.90;;;;;;5047090;28;20534;-84
2022/04/13 12:05:27;;;;;;;;;;;31.70;99.90;;;;;;5063947;28;19917;-84
2022/04/13 12:07:53;;;;;;;;;;;31.80;99.90;;;;;;5064732;28;19967;-84
2022/04/13 12:10:18;;;;;;;;;;;31.50;99.90;;;;;;5059024;28;19917;-83
2022/04/13 12:12:52;;;;;;;;;;;30.60;99.90;;;;;;5054495;28;19944;-84
2022/04/13 12:15:18;;;;;;;;;;;30.20;99.90;;;;;;5056655;28;19976;-84
2022/04/13 12:17:44;;;;;;;;;;;30.00;99.90;;;;;;5061766;28;19923;-83
2022/04/13 12:20:26;;;;;;;;;;;30.10;99.90;;;;;;5052934;28;21696;-82
2022/04/13 12:22:51;;;;;;;;;;;29.90;99.90;;;;;;5057772;28;19963;-84
2022/04/13 12:25:18;;;;;;;;;;;29.80;99.90;;;;;;5053865;28;19913;-82
2022/04/13 12:28:05;;;;;;;;;;;29.60;99.90;;;;;;5057531;28;19923;-83
2022/04/13 12:30:31;;;;;;;;;;;29.10;99.90;;;;;;5049407;28;19939;-84
2022/04/13 12:32:56;;;;;;;;;;;28.70;99.90;;;;;;5038160;28;19913;-84
2022/04/13 12:35:22;;;;;;;;;;;28.60;99.90;;;;;;5063519;28;20351;-85
2022/04/13 12:37:48;;;;;;;;;;;28.30;99.90;;;;;;5047692;28;19913;-83
2022/04/13 12:40:18;;;;;;;;;;;28.30;99.90;;;;;;5024443;28;19940;-83
2022/04/13 12:42:43;;;;;;;;;;;27.80;99.90;;;;;;5052395;28;19996;-83
2022/04/13 12:45:12;;;;;;;;;;;27.50;99.90;;;;;;5058315;28;19955;-83
2022/04/13 12:47:47;;;;;;;;;;;27.20;99.90;;;;;;5054246;28;19913;-86
2022/04/13 12:50:13;;;;;;;;;;;27.30;99.90;;;;;;5056912;28;19988;-84
2022/04/13 12:52:39;;;;;;;;;;;27.50;99.90;;;;;;5065697;28;19913;-84
2022/04/13 12:55:05;;;;;;;;;;;27.70;99.90;;;;;;5049475;28;19966;-84
2022/04/13 12:57:31;;;;;;;;;;;28.00;99.90;;;;;;5060982;28;19916;-84
2022/04/13 12:59:56;;;;;;;;;;;28.10;99.90;;;;;;5066928;28;19922;-84
2022/04/13 13:02:22;;;;;;;;;;;28.10;99.90;;;;;;5060047;28;19963;-86
2022/04/13 13:04:48;;;;;;;;;;;28.30;99.90;;;;;;5067444;28;19912;-86
2022/04/13 13:07:14;;;;;;;;;;;28.20;99.90;;;;;;5060489;28;19913;-85
2022/04/13 13:09:40;;;;;;;;;;;27.60;99.90;;;;;;5066992;28;20379;-85
2022/04/13 13:12:08;;;;;;;;;;;27.40;99.90;;;;;;5059724;28;19934;-85
2022/04/13 13:14:34;;;;;;;;;;;27.40;99.90;;;;;;5064109;28;19919;-85
2022/04/13 13:17:15;;;;;;;;;;;27.20;99.90;;;;;;5059287;28;19996;-85
2022/04/13 13:19:41;;;;;;;;;;;27.20;99.90;;;;;;5059385;28;19966;-84
2022/04/13 13:22:16;;;;;;;;;;;27.00;99.90;;;;;;5058082;28;19912;-84
2022/04/13 13:24:44;;;;;;;;;;;26.70;99.90;;;;;;5067771;28;19972;-86
2022/04/13 13:27:10;;;;;;;;;;;26.30;99.90;;;;;;5062762;28;20011;-85
2022/04/13 13:29:43;;;;;;;;;;;26.10;99.90;;;;;;5066235;28;19993;-88
2022/04/13 13:32:09;;;;;;;;;;;25.60;99.90;;;;;;5060080;28;19912;-85
2022/04/13 13:34:35;;;;;;;;;;;25.40;99.90;;;;;;5066652;28;19912;-88
2022/04/13 13:37:01;;;;;;;;;;;25.20;99.90;;;;;;5051481;28;19913;-85
2022/04/13 13:39:26;;;;;;;;;;;25.10;99.90;;;;;;5062099;28;19920;-85
2022/04/13 13:42:03;;;;;;;;;;;25.10;99.90;;;;;;5059576;28;19962;-85
2022/04/13 13:44:29;;;;;;;;;;;25.10;99.90;;;;;;5061365;28;19938;-86
2022/04/13 13:46:54;;;;;;;;;;;25.00;99.90;;;;;;5058941;28;19917;-86
2022/04/13 13:49:20;;;;;;;;;;;24.90;99.90;;;;;;5065235;28;19917;-85
2022/04/13 13:51:48;;;;;;;;;;;24.70;99.90;;;;;;5059096;28;19972;-86
2022/04/13 13:54:13;;;;;;;;;;;24.70;99.90;;;;;;5044411;28;19916;-85
2022/04/13 13:56:39;;;;;;;;;;;24.70;99.90;;;;;;5064627;28;19921;-85
2022/04/13 13:59:04;;;;;;;;;;;24.70;99.90;;;;;;5052853;28;19981;-84
2022/04/13 14:01:30;;;;;;;;;;;24.80;99.90;;;;;;5060664;28;19912;-86
2022/04/13 14:03:55;;;;;;;;;;;24.70;99.90;;;;;;5062399;28;19967;-85
2022/04/13 14:06:21;;;;;;;;;;;24.60;99.90;;;;;;5066992;28;19919;-85
2022/04/13 14:08:49;;;;;;;;;;;24.70;99.90;;;;;;5054378;28;19924;-86
2022/04/13 14:11:14;;;;;;;;;;;25.00;99.90;;;;;;5067649;28;19928;-87
2022/04/13 14:13:40;;;;;;;;;;;25.70;99.90;;;;;;5060348;28;19920;-85
2022/04/13 14:16:05;;;;;;;;;;;26.50;99.90;;;;;;5058069;28;19912;-86